createdAt,value
2019-03-23T00:00:53.852Z,101361.99
2019-03-23T00:03:25.833Z,101363.75
2019-03-23T00:05:58.404Z,101367.25
2019-03-23T00:08:31.292Z,101366.03
2019-03-23T00:11:03.074Z,101367.30
2019-03-23T00:13:35.038Z,101364.44
2019-03-23T00:16:08.900Z,101368.46
2019-03-23T00:18:41.942Z,101364.28
2019-03-23T00:21:12.522Z,101373.98
2019-03-23T00:23:43.966Z,101369.66
2019-03-23T00:28:53.115Z,101377.13
2019-03-23T00:31:24.515Z,101369.16
2019-03-23T00:33:53.926Z,101372.61
2019-03-23T00:36:27.722Z,101376.72
2019-03-23T00:39:00.944Z,101373.25
2019-03-23T00:41:30.141Z,101374.97
2019-03-23T00:44:07.569Z,101373.40
2019-03-23T00:46:38.474Z,101376.89
2019-03-23T00:49:10.375Z,101375.98
2019-03-23T00:51:40.370Z,101375.98
2019-03-23T00:54:10.055Z,101376.23
2019-03-23T00:56:40.166Z,101378.27
2019-03-23T00:59:10.413Z,101375.78
2019-03-23T01:01:45.968Z,101376.23
2019-03-23T01:04:10.534Z,101373.98
2019-03-23T01:06:51.729Z,101381.64
2019-03-23T01:09:17.039Z,101375.87
2019-03-23T01:11:50.023Z,101380.77
2019-03-23T01:14:19.707Z,101383.89
2019-03-23T01:16:51.391Z,101375.70
2019-03-23T01:19:21.580Z,101369.23
2019-03-23T01:21:56.761Z,101366.83
2019-03-23T01:24:28.893Z,101368.32
2019-03-23T01:26:59.034Z,101367.16
2019-03-23T01:29:31.064Z,101370.77
2019-03-23T01:31:59.385Z,101371.05
2019-03-23T01:34:33.077Z,101370.97
2019-03-23T01:37:04.105Z,101376.95
2019-03-23T01:39:35.041Z,101373.08
2019-03-23T01:42:04.049Z,101362.55
2019-03-23T01:44:33.041Z,101363.34
2019-03-23T01:47:04.644Z,101363.52
2019-03-23T01:49:33.668Z,101363.53
2019-03-23T01:52:17.980Z,101359.04
2019-03-23T01:57:27.723Z,101361.25
2019-03-23T02:00:03.696Z,101365.86
2019-03-23T02:02:32.623Z,101364.11
2019-03-23T02:05:04.253Z,101367.56
2019-03-23T02:07:36.292Z,101365.19
2019-03-23T02:10:09.745Z,101359.87
2019-03-23T02:12:40.926Z,101353.31
2019-03-23T02:15:11.671Z,101352.77
2019-03-23T02:17:41.530Z,101356.26
2019-03-23T02:20:12.236Z,101354.85
2019-03-23T02:22:44.070Z,101352.63
2019-03-23T02:25:15.586Z,101346.38
2019-03-23T02:27:45.908Z,101349.66
2019-03-23T02:30:15.844Z,101340.60
2019-03-23T02:32:50.079Z,101340.54
2019-03-23T02:35:16.101Z,101350.25
2019-03-23T02:37:47.377Z,101346.39
2019-03-23T02:40:22.076Z,101340.45
2019-03-23T02:42:49.991Z,101347.86
2019-03-23T02:45:20.588Z,101345.60
2019-03-23T02:47:51.696Z,101346.14
2019-03-23T02:50:21.814Z,101346.20
2019-03-23T02:52:51.403Z,101342.41
2019-03-23T02:55:21.605Z,101346.38
2019-03-23T02:57:54.976Z,101347.95
2019-03-23T03:00:27.573Z,101350.05
2019-03-23T03:02:55.916Z,101350.44
2019-03-23T03:05:25.088Z,101350.34
2019-03-23T03:07:55.229Z,101349.41
2019-03-23T03:10:37.507Z,101354.48
2019-03-23T03:13:08.044Z,101350.18
2019-03-23T03:15:43.991Z,101354.34
2019-03-23T03:18:14.238Z,101349.61
2019-03-23T03:20:44.266Z,101347.14
2019-03-23T03:23:14.894Z,101348.80
2019-03-23T03:25:48.445Z,101351.73
2019-03-23T03:28:22.802Z,101345.56
2019-03-23T03:30:54.534Z,101345.33
2019-03-23T03:33:25.743Z,101352.08
2019-03-23T03:35:57.909Z,101350.44
2019-03-23T03:38:29.749Z,101352.45
2019-03-23T03:43:36.981Z,101355.63
2019-03-23T03:46:04.786Z,101352.27
2019-03-23T03:48:38.731Z,101352.58
2019-03-23T03:51:08.480Z,101353.29
2019-03-23T03:53:39.955Z,101347.80
2019-03-23T03:56:10.151Z,101352.27
2019-03-23T03:58:42.524Z,101351.84
2019-03-23T04:01:12.155Z,101347.05
2019-03-23T04:03:42.295Z,101346.59
2019-03-23T04:06:12.479Z,101349.73
2019-03-23T04:08:43.457Z,101350.33
2019-03-23T04:11:15.393Z,101353.48
2019-03-23T04:13:46.245Z,101355.40
2019-03-23T04:16:17.273Z,101353.85
2019-03-23T04:18:48.503Z,101353.85
2019-03-23T04:21:18.964Z,101357.09
2019-03-23T04:23:53.114Z,101349.41
2019-03-23T04:26:29.342Z,101359.64
2019-03-23T04:29:00.110Z,101358.81
2019-03-23T04:31:31.406Z,101361.53
2019-03-23T04:34:02.608Z,101357.52
2019-03-23T04:39:12.510Z,101355.87
2019-03-23T04:41:42.424Z,101358.58
2019-03-23T04:44:15.587Z,101352.12
2019-03-23T04:46:46.441Z,101350.06
2019-03-23T04:49:17.410Z,101351.07
2019-03-23T04:51:53.219Z,101351.49
2019-03-23T04:54:21.681Z,101353.56
2019-03-23T04:56:59.233Z,101356.91
2019-03-23T04:59:29.931Z,101360.23
2019-03-23T05:02:00.463Z,101361.78
2019-03-23T05:04:30.138Z,101363.27
2019-03-23T05:06:59.795Z,101361.93
2019-03-23T05:09:38.165Z,101356.73
2019-03-23T05:12:13.539Z,101356.80
2019-03-23T05:14:49.966Z,101355.98
2019-03-23T05:17:18.765Z,101359.55
2019-03-23T05:19:49.712Z,101359.17
2019-03-23T05:22:21.881Z,101361.23
2019-03-23T05:24:52.547Z,101363.33
2019-03-23T05:27:23.277Z,101361.50
2019-03-23T05:29:57.011Z,101365.39
2019-03-23T05:32:26.081Z,101366.04
2019-03-23T05:34:56.799Z,101365.06
2019-03-23T05:37:33.508Z,101366.28
2019-03-23T05:40:04.281Z,101363.05
2019-03-23T05:42:34.211Z,101364.52
2019-03-23T05:47:44.302Z,101366.40
2019-03-23T05:50:13.542Z,101370.36
2019-03-23T05:52:43.606Z,101376.89
2019-03-23T05:58:05.465Z,101379.08
2019-03-23T06:00:36.406Z,101381.02
2019-03-23T06:03:07.061Z,101383.42
2019-03-23T06:05:38.349Z,101389.50
2019-03-23T06:08:08.360Z,101392.97
2019-03-23T06:10:39.346Z,101383.44
2019-03-23T06:13:10.257Z,101386.81
2019-03-23T06:15:47.110Z,101387.23
2019-03-23T06:18:20.730Z,101386.58
2019-03-23T06:20:51.815Z,101386.13
2019-03-23T06:23:28.237Z,101393.41
2019-03-23T06:25:58.226Z,101398.21
2019-03-23T06:28:31.781Z,101397.77
2019-03-23T06:31:05.112Z,101392.66
2019-03-23T06:33:37.598Z,101390.82
2019-03-23T06:36:08.689Z,101394.78
2019-03-23T06:38:39.309Z,101401.14
2019-03-23T06:41:08.419Z,101396.63
2019-03-23T06:43:39.699Z,101396.54
2019-03-23T06:46:10.198Z,101398.29
2019-03-23T06:48:39.794Z,101393.65
2019-03-23T06:51:10.787Z,101404.38
2019-03-23T06:53:42.596Z,101402.80
2019-03-23T06:56:15.143Z,101403.56
2019-03-23T07:01:34.445Z,101407.30
2019-03-23T07:04:07.400Z,101403.00
2019-03-23T07:06:41.767Z,101407.44
2019-03-23T07:09:16.245Z,101400.66
2019-03-23T07:11:42.353Z,101404.05
2019-03-23T07:14:13.677Z,101402.05
2019-03-23T07:16:45.706Z,101405.63
2019-03-23T07:19:14.561Z,101407.64
2019-03-23T07:21:44.401Z,101413.66
2019-03-23T07:24:18.439Z,101414.53
2019-03-23T07:26:48.574Z,101413.48
2019-03-23T07:29:17.741Z,101422.98
2019-03-23T07:31:50.276Z,101417.11
2019-03-23T07:34:21.970Z,101419.83
2019-03-23T07:36:52.816Z,101423.10
2019-03-23T07:39:28.076Z,101431.00
2019-03-23T07:41:55.273Z,101435.83
2019-03-23T07:44:26.333Z,101433.45
2019-03-23T07:46:56.457Z,101430.92
2019-03-23T07:49:27.726Z,101437.17
2019-03-23T07:54:43.620Z,101441.59
2019-03-23T07:57:18.636Z,101437.06
2019-03-23T08:02:27.988Z,101430.64
2019-03-23T08:04:57.709Z,101433.30
2019-03-23T08:07:30.992Z,101432.91
2019-03-23T08:10:01.437Z,101431.34
2019-03-23T08:12:33.197Z,101427.44
2019-03-23T08:15:02.821Z,101432.05
2019-03-23T08:17:34.591Z,101424.50
2019-03-23T08:20:03.691Z,101435.38
2019-03-23T08:22:34.591Z,101421.91
2019-03-23T08:27:46.446Z,101425.74
2019-03-23T08:30:17.126Z,101428.45
2019-03-23T08:32:50.101Z,101429.03
2019-03-23T08:38:02.505Z,101430.91
2019-03-23T08:40:35.782Z,101427.73
2019-03-23T08:43:04.535Z,101430.95
2019-03-23T08:45:39.494Z,101432.03
2019-03-23T08:48:11.441Z,101425.98
2019-03-23T08:50:42.643Z,101428.95
2019-03-23T08:53:14.608Z,101429.20
2019-03-23T08:55:45.077Z,101417.94
2019-03-23T08:58:18.126Z,101415.84
2019-03-23T09:00:51.816Z,101420.17
2019-03-23T09:03:24.778Z,101410.47
2019-03-23T09:05:55.135Z,101411.91
2019-03-23T09:08:25.447Z,101411.02
2019-03-23T09:10:56.438Z,101407.91
2019-03-23T09:13:40.205Z,101406.59
2019-03-23T09:15:58.545Z,101405.91
2019-03-23T09:18:29.215Z,101410.34
2019-03-23T09:20:58.515Z,101405.69
2019-03-23T09:23:29.597Z,101411.70
2019-03-23T09:25:58.414Z,101399.95
2019-03-23T09:28:28.584Z,101410.20
2019-03-23T09:30:57.498Z,101408.73
2019-03-23T09:33:26.082Z,101411.06
2019-03-23T09:35:56.171Z,101410.87
2019-03-23T09:38:26.263Z,101404.34
2019-03-23T09:40:59.078Z,101400.83
2019-03-23T09:43:28.306Z,101409.02
2019-03-23T09:45:59.751Z,101395.62
2019-03-23T09:48:30.530Z,101388.59
2019-03-23T09:51:00.458Z,101388.91
2019-03-23T09:53:30.708Z,101387.31
2019-03-23T09:56:02.058Z,101388.77
2019-03-23T09:58:30.396Z,101396.40
2019-03-23T10:01:00.133Z,101385.78
2019-03-23T10:03:30.100Z,101380.00
2019-03-23T10:05:59.142Z,101377.66
2019-03-23T10:08:29.654Z,101372.37
2019-03-23T10:11:00.489Z,101370.96
2019-03-23T10:13:33.444Z,101367.12
2019-03-23T10:16:04.208Z,101370.08
2019-03-23T10:21:20.463Z,101354.22
2019-03-23T10:23:50.408Z,101357.03
2019-03-23T10:26:21.919Z,101356.39
2019-03-23T10:28:52.659Z,101356.16
2019-03-23T10:31:23.491Z,101352.11
2019-03-23T10:33:55.238Z,101347.16
2019-03-23T10:36:26.930Z,101350.28
2019-03-23T10:38:58.226Z,101344.95
2019-03-23T10:41:33.051Z,101343.72
2019-03-23T10:44:03.497Z,101345.52
2019-03-23T10:46:34.869Z,101341.50
2019-03-23T10:49:06.194Z,101340.69
2019-03-23T10:51:36.981Z,101337.05
2019-03-23T10:54:06.767Z,101338.28
2019-03-23T10:56:36.537Z,101342.86
2019-03-23T10:59:07.749Z,101334.72
2019-03-23T11:01:39.489Z,101330.12
2019-03-23T11:06:54.230Z,101338.16
2019-03-23T11:09:28.321Z,101333.88
2019-03-23T11:11:57.336Z,101330.09
2019-03-23T11:14:29.445Z,101327.62
2019-03-23T11:17:02.288Z,101333.82
2019-03-23T11:19:34.831Z,101335.27
2019-03-23T11:22:05.533Z,101329.19
2019-03-23T11:24:38.035Z,101324.38
2019-03-23T11:27:07.741Z,101328.60
2019-03-23T11:29:45.072Z,101333.20
2019-03-23T11:32:16.314Z,101331.81
2019-03-23T11:34:45.370Z,101342.09
2019-03-23T11:37:15.578Z,101340.92
2019-03-23T11:39:48.397Z,101336.48
2019-03-23T11:42:18.292Z,101340.27
2019-03-23T11:44:49.505Z,101335.76
2019-03-23T11:47:19.305Z,101318.83
2019-03-23T11:49:49.473Z,101326.69
2019-03-23T11:52:23.378Z,101323.23
2019-03-23T11:54:55.425Z,101324.10
2019-03-23T11:57:29.945Z,101322.28
2019-03-23T11:59:59.116Z,101318.97
2019-03-23T12:02:33.741Z,101322.94
2019-03-23T12:05:04.350Z,101320.30
2019-03-23T12:07:36.744Z,101316.17
2019-03-23T12:10:07.273Z,101320.91
2019-03-23T12:12:39.943Z,101312.48
2019-03-23T12:15:13.352Z,101323.84
2019-03-23T12:20:21.569Z,101310.17
2019-03-23T12:22:51.563Z,101306.09
2019-03-23T12:28:06.370Z,101299.28
2019-03-23T12:30:36.703Z,101288.58
2019-03-23T12:33:07.407Z,101280.56
2019-03-23T12:38:21.162Z,101281.60
2019-03-23T12:40:52.395Z,101274.44
2019-03-23T12:43:23.198Z,101268.56
2019-03-23T12:45:54.464Z,101264.78
2019-03-23T12:48:25.101Z,101270.45
2019-03-23T12:50:57.212Z,101266.88
2019-03-23T12:53:30.042Z,101265.85
2019-03-23T12:56:01.592Z,101263.59
2019-03-23T12:58:33.490Z,101264.92
2019-03-23T13:01:02.170Z,101257.19
2019-03-23T13:03:32.797Z,101243.69
2019-03-23T13:06:04.643Z,101244.45
2019-03-23T13:08:35.014Z,101243.14
2019-03-23T13:11:06.660Z,101236.13
2019-03-23T13:13:38.684Z,101238.34
2019-03-23T13:16:10.783Z,101240.59
2019-03-23T13:18:40.318Z,101239.36
2019-03-23T13:21:09.734Z,101235.41
2019-03-23T13:23:40.842Z,101242.59
2019-03-23T13:26:14.719Z,101247.77
2019-03-23T13:28:49.455Z,101240.77
2019-03-23T13:31:22.464Z,101236.95
2019-03-23T13:33:53.914Z,101237.17
2019-03-23T13:36:24.114Z,101229.29
2019-03-23T13:38:55.791Z,101228.49
2019-03-23T13:41:41.194Z,101227.58
2019-03-23T13:44:01.538Z,101220.13
2019-03-23T13:46:33.399Z,101221.98
2019-03-23T13:49:05.775Z,101221.80
2019-03-23T13:51:36.424Z,101210.47
2019-03-23T13:54:06.734Z,101215.76
2019-03-23T13:56:40.248Z,101213.84
2019-03-23T13:59:11.853Z,101209.66
2019-03-23T14:01:47.798Z,101208.66
2019-03-23T14:04:20.616Z,101197.76
2019-03-23T14:06:56.594Z,101201.88
2019-03-23T14:09:28.525Z,101197.03
2019-03-23T14:12:00.514Z,101196.66
2019-03-23T14:14:34.389Z,101192.81
2019-03-23T14:17:05.450Z,101195.28
2019-03-23T14:19:37.532Z,101188.34
2019-03-23T14:22:09.679Z,101184.70
2019-03-23T14:27:21.495Z,101179.51
2019-03-23T14:29:51.861Z,101182.47
2019-03-23T14:32:28.795Z,101174.61
2019-03-23T14:34:58.358Z,101179.31
2019-03-23T14:37:30.669Z,101185.53
2019-03-23T14:40:02.506Z,101183.66
2019-03-23T14:45:13.132Z,101173.89
2019-03-23T14:47:44.768Z,101182.58
2019-03-23T14:50:13.808Z,101177.08
2019-03-23T14:52:42.639Z,101178.94
2019-03-23T14:55:15.955Z,101181.25
2019-03-23T14:57:42.966Z,101181.38
2019-03-23T15:00:13.520Z,101178.28
2019-03-23T15:02:46.947Z,101181.23
2019-03-23T15:05:19.518Z,101183.28
2019-03-23T15:07:50.484Z,101177.31
2019-03-23T15:10:20.541Z,101179.89
2019-03-23T15:12:52.938Z,101179.44
2019-03-23T15:15:22.912Z,101177.53
2019-03-23T15:17:57.152Z,101178.23
2019-03-23T15:20:29.652Z,101173.77
2019-03-23T15:22:58.505Z,101170.59
2019-03-23T15:25:29.257Z,101177.47
2019-03-23T15:28:00.308Z,101178.92
2019-03-23T15:30:31.340Z,101182.15
2019-03-23T15:33:02.548Z,101179.19
2019-03-23T15:38:13.550Z,101175.25
2019-03-23T15:40:42.645Z,101178.14
2019-03-23T15:43:15.145Z,101180.49
2019-03-23T15:45:45.516Z,101171.30
2019-03-23T15:48:14.330Z,101174.41
2019-03-23T15:53:26.598Z,101177.39
2019-03-23T15:55:58.286Z,101183.98
2019-03-23T15:58:29.340Z,101187.44
2019-03-23T16:01:01.648Z,101188.12
2019-03-23T16:03:35.688Z,101188.83
2019-03-23T16:06:07.310Z,101186.52
2019-03-23T16:08:39.498Z,101185.84
2019-03-23T16:11:09.897Z,101183.47
2019-03-23T16:13:40.637Z,101184.94
2019-03-23T16:16:15.394Z,101190.84
2019-03-23T16:21:25.550Z,101191.20
2019-03-23T16:23:55.668Z,101191.78
2019-03-23T16:26:24.744Z,101200.20
2019-03-23T16:28:56.717Z,101202.19
2019-03-23T16:31:25.636Z,101202.87
2019-03-23T16:33:59.137Z,101212.91
2019-03-23T16:36:30.651Z,101210.14
2019-03-23T16:39:02.923Z,101216.72
2019-03-23T16:41:32.385Z,101215.09
2019-03-23T16:44:06.870Z,101219.37
2019-03-23T16:46:37.992Z,101231.41
2019-03-23T16:49:08.931Z,101233.20
2019-03-23T16:51:38.235Z,101226.48
2019-03-23T16:54:11.013Z,101228.27
2019-03-23T16:56:40.215Z,101232.55
2019-03-23T16:59:10.331Z,101235.17
2019-03-23T17:01:45.466Z,101228.28
2019-03-23T17:04:16.077Z,101232.06
2019-03-23T17:06:46.860Z,101233.95
2019-03-23T17:09:17.229Z,101235.00
2019-03-23T17:11:48.822Z,101248.58
2019-03-23T17:14:20.780Z,101258.11
2019-03-23T17:16:56.012Z,101262.48
2019-03-23T17:19:26.581Z,101259.61
2019-03-23T17:21:57.698Z,101270.72
2019-03-23T17:24:28.605Z,101266.69
2019-03-23T17:26:59.198Z,101274.06
2019-03-23T17:29:28.706Z,101278.81
2019-03-23T17:32:02.279Z,101276.48
2019-03-23T17:34:34.725Z,101284.23
2019-03-23T17:37:09.958Z,101282.18
2019-03-23T17:39:40.274Z,101286.25
2019-03-23T17:45:01.044Z,101284.34
2019-03-23T17:47:35.971Z,101296.23
2019-03-23T17:50:05.573Z,101299.39
2019-03-23T17:52:38.463Z,101304.70
2019-03-23T17:55:08.686Z,101301.34
2019-03-23T17:57:41.975Z,101308.19
2019-03-23T18:00:16.642Z,101312.34
2019-03-23T18:02:46.922Z,101314.13
2019-03-23T18:05:21.118Z,101318.53
2019-03-23T18:07:51.749Z,101323.14
2019-03-23T18:10:23.103Z,101319.47
2019-03-23T18:12:55.084Z,101330.01
2019-03-23T18:18:06.971Z,101335.62
2019-03-23T18:20:39.744Z,101342.24
2019-03-23T18:23:10.179Z,101342.50
2019-03-23T18:25:42.881Z,101346.92
2019-03-23T18:28:17.714Z,101336.51
2019-03-23T18:30:48.078Z,101341.31
2019-03-23T18:33:19.250Z,101347.03
2019-03-23T18:35:50.813Z,101353.54
2019-03-23T18:38:19.998Z,101342.04
2019-03-23T18:40:55.250Z,101345.64
2019-03-23T18:43:27.679Z,101351.78
2019-03-23T18:45:55.793Z,101352.30
2019-03-23T18:48:28.064Z,101349.45
2019-03-23T18:50:59.125Z,101358.45
2019-03-23T18:53:32.193Z,101359.88
2019-03-23T18:56:03.865Z,101360.95
2019-03-23T18:58:34.300Z,101366.76
2019-03-23T19:01:07.143Z,101370.87
2019-03-23T19:03:36.487Z,101373.73
2019-03-23T19:06:11.473Z,101377.39
2019-03-23T19:08:42.726Z,101376.69
2019-03-23T19:11:15.022Z,101374.92
2019-03-23T19:13:47.993Z,101381.17
2019-03-23T19:18:54.886Z,101375.47
2019-03-23T19:21:22.734Z,101390.48
2019-03-23T19:23:52.971Z,101385.75
2019-03-23T19:26:24.205Z,101381.94
2019-03-23T19:29:00.485Z,101386.55
2019-03-23T19:31:31.408Z,101373.31
2019-03-23T19:34:01.784Z,101380.52
2019-03-23T19:36:35.962Z,101388.55
2019-03-23T19:39:16.040Z,101382.41
2019-03-23T19:41:44.800Z,101381.88
2019-03-23T19:47:03.704Z,101395.18
2019-03-23T19:49:37.993Z,101396.36
2019-03-23T19:52:08.536Z,101388.79
2019-03-23T19:54:38.842Z,101385.91
2019-03-23T19:57:08.865Z,101390.27
2019-03-23T19:59:38.779Z,101391.92
2019-03-23T20:02:10.542Z,101398.84
2019-03-23T20:04:40.502Z,101382.83
2019-03-23T20:07:11.700Z,101392.20
2019-03-23T20:09:44.057Z,101397.05
2019-03-23T20:12:15.500Z,101402.59
2019-03-23T20:14:49.534Z,101399.77
2019-03-23T20:17:19.679Z,101392.34
2019-03-23T20:22:29.516Z,101405.91
2019-03-23T20:25:03.634Z,101402.38
2019-03-23T20:27:35.965Z,101404.72
2019-03-23T20:30:05.924Z,101398.54
2019-03-23T20:32:35.428Z,101399.10
2019-03-23T20:35:05.235Z,101410.79
2019-03-23T20:40:17.738Z,101398.94
2019-03-23T20:42:49.801Z,101402.84
2019-03-23T20:45:29.107Z,101403.13
2019-03-23T20:47:59.485Z,101404.08
2019-03-23T20:50:29.069Z,101404.66
2019-03-23T20:52:57.972Z,101411.02
2019-03-23T20:55:30.849Z,101411.84
2019-03-23T20:58:01.982Z,101408.03
2019-03-23T21:00:30.847Z,101402.57
2019-03-23T21:02:59.227Z,101404.09
2019-03-23T21:05:34.489Z,101394.42
2019-03-23T21:08:09.451Z,101398.26
2019-03-23T21:10:41.309Z,101397.62
2019-03-23T21:13:09.967Z,101396.45
2019-03-23T21:15:44.933Z,101387.66
2019-03-23T21:18:14.259Z,101391.16
2019-03-23T21:20:45.889Z,101392.46
2019-03-23T21:23:18.075Z,101394.36
2019-03-23T21:25:51.712Z,101396.49
2019-03-23T21:28:24.777Z,101390.88
2019-03-23T21:30:58.701Z,101395.38
2019-03-23T21:33:38.663Z,101392.98
2019-03-23T21:36:04.417Z,101392.10
2019-03-23T21:38:52.373Z,101389.00
2019-03-23T21:41:12.317Z,101393.25
2019-03-23T21:43:41.430Z,101387.23
2019-03-23T21:46:11.411Z,101388.42
2019-03-23T21:48:45.813Z,101385.69
2019-03-23T21:51:16.507Z,101380.17
2019-03-23T21:54:08.000Z,101378.54
2019-03-23T21:56:41.535Z,101380.72
2019-03-23T21:59:11.513Z,101375.15
2019-03-23T22:01:43.706Z,101371.69
2019-03-23T22:04:17.530Z,101376.61
2019-03-23T22:06:48.985Z,101368.41
2019-03-23T22:09:24.008Z,101368.30
2019-03-23T22:11:58.228Z,101363.20
2019-03-23T22:14:41.511Z,101367.94
2019-03-23T22:17:05.876Z,101367.31
2019-03-23T22:19:36.464Z,101366.17
2019-03-23T22:22:12.228Z,101364.38
2019-03-23T22:24:39.944Z,101369.93
2019-03-23T22:27:19.199Z,101374.18
2019-03-23T22:29:50.406Z,101372.19
2019-03-23T22:32:21.579Z,101364.31
2019-03-23T22:34:52.015Z,101371.17
2019-03-23T22:37:24.257Z,101368.47
2019-03-23T22:39:59.734Z,101364.33
2019-03-23T22:42:30.522Z,101358.86
2019-03-23T22:45:01.436Z,101359.20
2019-03-23T22:47:34.613Z,101357.28
2019-03-23T22:50:10.882Z,101360.19
2019-03-23T22:52:43.231Z,101346.04
2019-03-23T22:55:11.957Z,101350.08
2019-03-23T22:57:46.645Z,101347.44
2019-03-23T23:00:32.919Z,101348.06
2019-03-23T23:03:04.288Z,101345.78
2019-03-23T23:05:34.733Z,101356.05
2019-03-23T23:08:04.750Z,101349.45
2019-03-23T23:10:35.624Z,101345.89
2019-03-23T23:13:13.979Z,101352.84
2019-03-23T23:15:45.286Z,101343.62
2019-03-23T23:18:18.135Z,101344.63
2019-03-23T23:20:49.997Z,101336.72
2019-03-23T23:23:20.132Z,101326.38
2019-03-23T23:26:04.135Z,101331.16
2019-03-23T23:31:18.815Z,101328.31
2019-03-23T23:33:50.679Z,101321.58
2019-03-23T23:36:21.919Z,101321.44
2019-03-23T23:38:53.964Z,101316.12
2019-03-23T23:41:30.555Z,101314.42
2019-03-23T23:44:10.326Z,101304.98
2019-03-23T23:46:46.162Z,101304.44
2019-03-23T23:49:22.521Z,101311.11
2019-03-23T23:51:56.857Z,101313.44
2019-03-23T23:54:27.876Z,101313.28
2019-03-23T23:57:03.534Z,101312.45
2019-03-23T23:59:36.089Z,101322.92
